createdAt,value
2019-05-30T00:00:44.944Z,97174.27
2019-05-30T00:03:23.241Z,97168.55
2019-05-30T00:05:58.370Z,97169.98
2019-05-30T00:08:38.362Z,97165.08
2019-05-30T00:11:19.464Z,97169.84
2019-05-30T00:13:56.926Z,97170.36
2019-05-30T00:16:37.635Z,97162.83
2019-05-30T00:19:14.830Z,97161.70
2019-05-30T00:21:55.085Z,97164.50
2019-05-30T00:24:41.192Z,97163.69
2019-05-30T00:27:17.392Z,97167.34
2019-05-30T00:29:57.173Z,97170.28
2019-05-30T00:32:33.529Z,97174.70
2019-05-30T00:35:43.563Z,97180.30
2019-05-30T00:38:19.923Z,97183.23
2019-05-30T00:40:58.208Z,97189.48
2019-05-30T00:43:34.661Z,97195.87
2019-05-30T00:46:12.574Z,97196.67
2019-05-30T00:48:45.578Z,97193.39
2019-05-30T00:51:18.188Z,97184.87
2019-05-30T00:53:58.738Z,97193.40
2019-05-30T00:56:35.039Z,97189.16
2019-05-30T00:59:12.318Z,97195.55
2019-05-30T01:01:46.667Z,97199.31
2019-05-30T01:04:21.712Z,97199.14
2019-05-30T01:06:56.922Z,97198.63
2019-05-30T01:09:37.384Z,97197.80
2019-05-30T01:12:15.108Z,97202.39
2019-05-30T01:14:58.920Z,97196.98
2019-05-30T01:17:33.138Z,97196.01
2019-05-30T01:20:12.067Z,97192.73
2019-05-30T01:22:54.297Z,97201.91
2019-05-30T01:25:28.221Z,97196.98
2019-05-30T01:28:08.043Z,97202.05
2019-05-30T01:30:56.840Z,97206.81
2019-05-30T01:33:22.957Z,97206.16
2019-05-30T01:36:03.744Z,97201.88
2019-05-30T01:38:35.833Z,97202.36
2019-05-30T01:41:17.429Z,97197.46
2019-05-30T01:43:59.861Z,97201.39
2019-05-30T01:46:34.088Z,97208.59
2019-05-30T01:49:18.621Z,97204.14
2019-05-30T01:51:58.339Z,97200.22
2019-05-30T01:54:35.655Z,97200.69
2019-05-30T01:57:13.722Z,97203.66
2019-05-30T01:59:58.603Z,97203.66
2019-05-30T02:02:29.402Z,97202.17
2019-05-30T02:05:09.879Z,97206.75
2019-05-30T02:07:49.571Z,97211.65
2019-05-30T02:10:30.237Z,97217.23
2019-05-30T02:13:13.591Z,97220.16
2019-05-30T02:15:49.614Z,97218.53
2019-05-30T02:18:26.960Z,97230.31
2019-05-30T02:21:03.798Z,97232.75
2019-05-30T02:23:43.604Z,97245.50
2019-05-30T02:26:16.042Z,97238.08
2019-05-30T02:28:49.203Z,97236.59
2019-05-30T02:31:38.667Z,97246.03
2019-05-30T02:34:12.340Z,97247.94
2019-05-30T02:36:50.557Z,97235.47
2019-05-30T02:39:28.672Z,97230.68
2019-05-30T02:42:03.409Z,97239.98
2019-05-30T02:44:40.012Z,97239.77
2019-05-30T02:47:16.258Z,97242.03
2019-05-30T02:49:55.107Z,97240.72
2019-05-30T02:52:39.559Z,97243.00
2019-05-30T02:55:16.871Z,97246.95
2019-05-30T02:58:03.564Z,97251.64
2019-05-30T03:00:37.439Z,97255.66
2019-05-30T03:03:24.294Z,97254.53
2019-05-30T03:05:59.423Z,97258.11
2019-05-30T03:08:34.679Z,97264.03
2019-05-30T03:11:16.718Z,97256.53
2019-05-30T03:13:55.602Z,97255.89
2019-05-30T03:16:39.424Z,97266.19
2019-05-30T03:19:17.708Z,97265.08
2019-05-30T03:21:56.758Z,97264.62
2019-05-30T03:24:36.956Z,97266.22
2019-05-30T03:27:11.835Z,97269.22
2019-05-30T03:29:47.153Z,97275.93
2019-05-30T03:33:01.979Z,97287.70
2019-05-30T03:35:06.129Z,97286.44
2019-05-30T03:37:42.915Z,97288.42
2019-05-30T03:40:23.488Z,97291.73
2019-05-30T03:42:57.113Z,97290.82
2019-05-30T03:45:36.625Z,97297.73
2019-05-30T03:48:14.330Z,97297.12
2019-05-30T03:50:52.610Z,97301.89
2019-05-30T03:53:34.657Z,97296.50
2019-05-30T03:56:22.647Z,97300.79
2019-05-30T03:59:19.149Z,97302.45
2019-05-30T04:02:32.352Z,97310.81
2019-05-30T04:05:16.065Z,97307.55
2019-05-30T04:07:54.398Z,97314.28
2019-05-30T04:10:35.616Z,97314.17
2019-05-30T04:13:20.678Z,97316.80
2019-05-30T04:15:53.995Z,97317.63
2019-05-30T04:18:33.233Z,97317.33
2019-05-30T04:21:14.109Z,97314.38
2019-05-30T04:23:52.197Z,97310.45
2019-05-30T04:26:28.142Z,97309.45
2019-05-30T04:29:05.471Z,97310.92
2019-05-30T04:31:51.684Z,97315.34
2019-05-30T04:34:40.285Z,97311.73
2019-05-30T04:37:20.573Z,97312.23
2019-05-30T04:39:54.953Z,97309.95
2019-05-30T04:42:28.366Z,97315.34
2019-05-30T04:45:15.984Z,97316.45
2019-05-30T04:47:50.402Z,97315.33
2019-05-30T04:50:28.538Z,97323.19
2019-05-30T04:52:57.965Z,97319.43
2019-05-30T04:55:29.847Z,97317.93
2019-05-30T04:58:13.267Z,97324.64
2019-05-30T05:00:53.643Z,97328.73
2019-05-30T05:03:45.017Z,97333.45
2019-05-30T05:06:07.653Z,97329.03
2019-05-30T05:08:41.928Z,97325.03
2019-05-30T05:11:16.595Z,97324.88
2019-05-30T05:13:53.361Z,97327.13
2019-05-30T05:16:35.417Z,97327.73
2019-05-30T05:19:07.083Z,97333.24
2019-05-30T05:21:45.603Z,97335.36
2019-05-30T05:24:23.629Z,97344.17
2019-05-30T05:27:01.127Z,97344.92
2019-05-30T05:29:35.090Z,97336.48
2019-05-30T05:32:14.129Z,97341.67
2019-05-30T05:34:52.123Z,97352.62
2019-05-30T05:37:25.357Z,97351.77
2019-05-30T05:40:00.530Z,97352.11
2019-05-30T05:42:37.860Z,97356.28
2019-05-30T05:45:09.862Z,97362.53
2019-05-30T05:47:47.601Z,97364.84
2019-05-30T05:50:34.909Z,97360.77
2019-05-30T05:53:10.827Z,97364.97
2019-05-30T05:55:45.751Z,97370.91
2019-05-30T05:58:30.260Z,97374.47
2019-05-30T06:01:05.799Z,97378.47
2019-05-30T06:03:47.493Z,97384.11
2019-05-30T06:06:23.539Z,97383.81
2019-05-30T06:09:01.620Z,97386.44
2019-05-30T06:11:35.568Z,97388.77
2019-05-30T06:14:10.744Z,97382.94
2019-05-30T06:16:47.423Z,97386.92
2019-05-30T06:19:25.359Z,97387.64
2019-05-30T06:22:07.782Z,97389.16
2019-05-30T06:25:00.137Z,97387.27
2019-05-30T06:27:58.319Z,97386.33
2019-05-30T06:30:34.013Z,97385.92
2019-05-30T06:33:11.073Z,97381.05
2019-05-30T06:35:45.761Z,97386.24
2019-05-30T06:38:35.598Z,97389.39
2019-05-30T06:41:12.076Z,97383.33
2019-05-30T06:44:08.072Z,97389.51
2019-05-30T06:46:44.401Z,97395.74
2019-05-30T06:49:22.770Z,97389.83
2019-05-30T06:51:58.109Z,97392.14
2019-05-30T06:54:45.785Z,97393.91
2019-05-30T06:57:16.903Z,97396.44
2019-05-30T07:00:00.324Z,97401.90
2019-05-30T07:02:42.544Z,97399.92
2019-05-30T07:05:18.828Z,97400.30
2019-05-30T07:07:57.696Z,97403.05
2019-05-30T07:10:31.118Z,97399.86
2019-05-30T07:13:02.823Z,97404.55
2019-05-30T07:15:37.902Z,97408.21
2019-05-30T07:18:40.137Z,97409.75
2019-05-30T07:21:29.816Z,97410.17
2019-05-30T07:24:11.237Z,97409.65
2019-05-30T07:26:45.824Z,97414.64
2019-05-30T07:29:19.551Z,97419.82
2019-05-30T07:31:53.276Z,97414.84
2019-05-30T07:34:32.459Z,97424.54
2019-05-30T07:37:04.215Z,97416.95
2019-05-30T07:39:43.454Z,97414.48
2019-05-30T07:42:15.590Z,97420.20
2019-05-30T07:44:48.985Z,97429.72
2019-05-30T07:47:20.701Z,97437.53
2019-05-30T07:49:53.482Z,97443.38
2019-05-30T07:52:26.383Z,97447.44
2019-05-30T07:55:04.549Z,97450.41
2019-05-30T07:57:41.445Z,97454.47
2019-05-30T08:00:18.778Z,97459.80
2019-05-30T08:02:53.845Z,97458.61
2019-05-30T08:05:33.257Z,97459.92
2019-05-30T08:08:08.216Z,97456.23
2019-05-30T08:10:46.568Z,97449.49
2019-05-30T08:13:19.591Z,97457.23
2019-05-30T08:15:57.735Z,97454.14
2019-05-30T08:18:29.560Z,97462.66
2019-05-30T08:21:11.775Z,97467.41
2019-05-30T08:23:45.513Z,97471.05
2019-05-30T08:26:18.612Z,97468.89
2019-05-30T08:29:09.655Z,97469.42
2019-05-30T08:31:56.538Z,97477.78
2019-05-30T08:34:40.213Z,97468.06
2019-05-30T08:37:18.913Z,97481.78
2019-05-30T08:39:54.580Z,97479.53
2019-05-30T08:42:38.168Z,97482.20
2019-05-30T08:45:17.574Z,97480.19
2019-05-30T08:48:01.162Z,97482.88
2019-05-30T08:50:49.730Z,97486.39
2019-05-30T08:53:24.161Z,97498.98
2019-05-30T08:56:15.083Z,97497.00
2019-05-30T08:59:09.642Z,97491.88
2019-05-30T09:01:42.104Z,97488.88
2019-05-30T09:04:14.584Z,97487.38
2019-05-30T09:06:46.932Z,97486.46
2019-05-30T09:09:18.695Z,97495.97
2019-05-30T09:11:50.400Z,97492.58
2019-05-30T09:14:22.158Z,97489.20
2019-05-30T09:16:55.069Z,97496.71
2019-05-30T09:19:27.166Z,97502.53
2019-05-30T09:21:58.887Z,97497.25
2019-05-30T09:24:30.476Z,97502.52
2019-05-30T09:27:02.030Z,97503.33
2019-05-30T09:29:33.954Z,97491.20
2019-05-30T09:32:05.916Z,97488.16
2019-05-30T09:34:38.346Z,97485.91
2019-05-30T09:37:11.443Z,97487.82
2019-05-30T09:39:43.437Z,97494.36
2019-05-30T09:42:15.230Z,97502.56
2019-05-30T09:44:50.424Z,97501.35
2019-05-30T09:47:20.964Z,97504.25
2019-05-30T09:49:53.047Z,97499.77
2019-05-30T09:52:26.111Z,97498.45
2019-05-30T09:54:58.212Z,97504.39
2019-05-30T09:57:30.944Z,97505.86
2019-05-30T10:00:02.942Z,97506.87
2019-05-30T10:02:34.908Z,97505.84
2019-05-30T10:05:07.349Z,97510.45
2019-05-30T10:07:39.138Z,97506.26
2019-05-30T10:10:11.191Z,97511.61
2019-05-30T10:12:43.868Z,97506.52
2019-05-30T10:17:20.837Z,97516.42
2019-05-30T10:19:53.854Z,97517.98
2019-05-30T10:22:25.561Z,97525.43
2019-05-30T10:24:57.275Z,97526.66
2019-05-30T10:27:29.516Z,97524.22
2019-05-30T10:30:02.215Z,97524.30
2019-05-30T10:32:35.534Z,97522.27
2019-05-30T10:35:08.189Z,97533.84
2019-05-30T10:37:43.070Z,97522.19
2019-05-30T10:40:14.961Z,97527.72
2019-05-30T10:42:49.562Z,97521.03
2019-05-30T10:45:22.914Z,97525.47
2019-05-30T10:47:56.075Z,97532.35
2019-05-30T10:50:29.616Z,97542.25
2019-05-30T10:53:01.388Z,97538.66
2019-05-30T10:55:33.766Z,97540.82
2019-05-30T10:58:05.574Z,97545.44
2019-05-30T11:00:53.778Z,97532.78
2019-05-30T11:03:27.616Z,97535.82
2019-05-30T11:06:25.374Z,97546.57
2019-05-30T11:08:59.391Z,97535.31
2019-05-30T11:11:31.234Z,97536.45
2019-05-30T11:14:02.980Z,97538.38
2019-05-30T11:16:34.676Z,97544.16
2019-05-30T11:19:07.639Z,97544.78
2019-05-30T11:21:40.659Z,97549.55
2019-05-30T11:24:12.980Z,97542.78
2019-05-30T11:26:44.830Z,97533.31
2019-05-30T11:29:16.653Z,97532.06
2019-05-30T11:31:48.795Z,97533.31
2019-05-30T11:34:23.395Z,97524.64
2019-05-30T11:36:55.217Z,97528.50
2019-05-30T11:39:29.264Z,97521.09
2019-05-30T11:42:04.045Z,97529.75
2019-05-30T11:44:36.287Z,97532.13
2019-05-30T11:47:08.341Z,97534.08
2019-05-30T11:49:40.230Z,97535.35
2019-05-30T11:52:12.062Z,97538.85
2019-05-30T11:54:44.061Z,97537.81
2019-05-30T11:57:15.927Z,97532.53
2019-05-30T11:59:47.850Z,97535.47
2019-05-30T12:02:19.426Z,97536.66
2019-05-30T12:04:52.514Z,97529.28
2019-05-30T12:07:35.698Z,97529.04
2019-05-30T12:10:01.390Z,97528.05
2019-05-30T12:12:34.606Z,97538.29
2019-05-30T12:15:07.125Z,97535.30
2019-05-30T12:17:39.191Z,97540.16
2019-05-30T12:20:12.160Z,97539.50
2019-05-30T12:22:43.937Z,97532.00
2019-05-30T12:25:16.509Z,97525.55
2019-05-30T12:27:48.867Z,97515.27
2019-05-30T12:30:21.703Z,97519.87
2019-05-30T12:32:54.209Z,97523.00
2019-05-30T12:35:26.467Z,97518.61
2019-05-30T12:38:01.410Z,97522.95
2019-05-30T12:40:32.178Z,97519.50
2019-05-30T12:43:05.036Z,97520.02
2019-05-30T12:45:36.868Z,97524.20
2019-05-30T12:48:08.700Z,97514.72
2019-05-30T12:50:40.502Z,97513.81
2019-05-30T12:53:12.115Z,97516.28
2019-05-30T12:55:46.245Z,97512.81
2019-05-30T12:58:17.994Z,97515.00
2019-05-30T13:00:49.815Z,97514.83
2019-05-30T13:03:21.613Z,97507.98
2019-05-30T13:05:55.042Z,97505.56
2019-05-30T13:08:27.377Z,97502.55
2019-05-30T13:11:01.552Z,97502.65
2019-05-30T13:13:34.598Z,97500.27
2019-05-30T13:16:08.532Z,97504.77
2019-05-30T13:18:40.696Z,97498.57
2019-05-30T13:21:12.409Z,97496.16
2019-05-30T13:23:45.105Z,97494.77
2019-05-30T13:26:29.186Z,97489.08
2019-05-30T13:29:03.173Z,97491.30
2019-05-30T13:31:37.687Z,97495.41
2019-05-30T13:34:09.352Z,97496.47
2019-05-30T13:36:41.071Z,97501.53
2019-05-30T13:39:12.901Z,97501.36
2019-05-30T13:41:44.665Z,97507.14
2019-05-30T13:44:17.393Z,97507.81
2019-05-30T13:46:49.101Z,97508.98
2019-05-30T13:49:20.948Z,97511.22
2019-05-30T13:51:52.658Z,97506.77
2019-05-30T13:54:25.043Z,97510.19
2019-05-30T13:56:56.866Z,97510.56
2019-05-30T13:59:29.068Z,97509.44
2019-05-30T14:02:01.873Z,97506.77
2019-05-30T14:04:34.250Z,97505.34
2019-05-30T14:07:08.361Z,97498.72
2019-05-30T14:09:40.232Z,97499.36
2019-05-30T14:12:11.971Z,97494.02
2019-05-30T14:14:44.279Z,97496.62
2019-05-30T14:17:16.137Z,97499.47
2019-05-30T14:19:47.974Z,97500.47
2019-05-30T14:22:19.780Z,97492.80
2019-05-30T14:24:53.868Z,97493.91
2019-05-30T14:27:25.497Z,97488.37
2019-05-30T14:29:57.537Z,97488.82
2019-05-30T14:32:29.715Z,97491.56
2019-05-30T14:35:02.510Z,97489.94
2019-05-30T14:37:35.320Z,97487.05
2019-05-30T14:40:08.832Z,97484.44
2019-05-30T14:42:40.895Z,97484.50
2019-05-30T14:45:14.877Z,97486.61
2019-05-30T14:47:46.521Z,97490.41
2019-05-30T14:50:19.402Z,97483.02
2019-05-30T14:52:51.419Z,97484.36
2019-05-30T14:55:24.023Z,97490.23
2019-05-30T14:57:58.266Z,97493.34
2019-05-30T15:00:29.683Z,97481.95
2019-05-30T15:03:01.699Z,97475.72
2019-05-30T15:05:34.056Z,97477.70
2019-05-30T15:08:06.495Z,97478.05
2019-05-30T15:10:39.573Z,97485.83
2019-05-30T15:13:11.674Z,97483.05
2019-05-30T15:15:43.811Z,97486.37
2019-05-30T15:18:15.619Z,97491.94
2019-05-30T15:20:47.442Z,97486.86
2019-05-30T15:23:19.287Z,97483.28
2019-05-30T15:25:51.249Z,97482.75
2019-05-30T15:28:24.257Z,97474.16
2019-05-30T15:30:56.894Z,97478.05
2019-05-30T15:33:28.743Z,97473.80
2019-05-30T15:36:00.419Z,97476.88
2019-05-30T15:38:33.773Z,97476.23
2019-05-30T15:41:06.979Z,97472.64
2019-05-30T15:43:38.827Z,97468.94
2019-05-30T15:46:11.778Z,97460.97
2019-05-30T15:48:47.199Z,97467.68
2019-05-30T15:51:20.596Z,97466.75
2019-05-30T15:53:52.783Z,97469.55
2019-05-30T15:56:24.574Z,97461.84
2019-05-30T15:58:56.950Z,97463.77
2019-05-30T16:01:28.587Z,97462.87
2019-05-30T16:04:00.411Z,97458.70
2019-05-30T16:06:32.568Z,97454.69
2019-05-30T16:09:06.683Z,97454.65
2019-05-30T16:11:38.923Z,97456.47
2019-05-30T16:14:11.140Z,97451.99
2019-05-30T16:16:44.273Z,97453.51
2019-05-30T16:19:22.106Z,97456.89
2019-05-30T16:21:49.990Z,97453.10
2019-05-30T16:24:22.351Z,97448.00
2019-05-30T16:26:53.950Z,97459.02
2019-05-30T16:29:26.267Z,97459.87
2019-05-30T16:31:59.309Z,97455.53
2019-05-30T16:34:32.854Z,97459.48
2019-05-30T16:37:04.929Z,97460.38
2019-05-30T16:39:36.680Z,97455.48
2019-05-30T16:42:11.170Z,97454.78
2019-05-30T16:44:44.476Z,97452.16
2019-05-30T16:47:16.633Z,97458.58
2019-05-30T16:49:48.319Z,97460.67
2019-05-30T16:52:23.057Z,97464.45
2019-05-30T16:54:54.998Z,97463.73
2019-05-30T16:57:26.765Z,97465.89
2019-05-30T17:00:00.783Z,97465.17
2019-05-30T17:02:32.987Z,97460.55
2019-05-30T17:05:07.670Z,97465.34
2019-05-30T17:07:40.451Z,97469.70
2019-05-30T17:10:22.208Z,97467.67
2019-05-30T17:12:46.005Z,97471.45
2019-05-30T17:15:20.004Z,97470.52
2019-05-30T17:17:52.045Z,97486.55
2019-05-30T17:20:24.557Z,97479.89
2019-05-30T17:22:56.922Z,97477.74
2019-05-30T17:25:29.477Z,97483.78
2019-05-30T17:28:01.173Z,97483.64
2019-05-30T17:30:33.020Z,97474.88
2019-05-30T17:33:04.600Z,97479.14
2019-05-30T17:35:36.886Z,97486.38
2019-05-30T17:38:08.549Z,97479.95
2019-05-30T17:40:45.563Z,97484.92
2019-05-30T17:43:14.787Z,97484.59
2019-05-30T17:45:46.618Z,97486.08
2019-05-30T17:48:19.333Z,97490.92
2019-05-30T17:50:51.088Z,97493.78
2019-05-30T17:53:23.969Z,97495.97
2019-05-30T17:55:59.268Z,97489.94
2019-05-30T17:58:31.170Z,97494.16
2019-05-30T18:01:04.067Z,97493.41
2019-05-30T18:03:35.765Z,97493.97
2019-05-30T18:06:07.587Z,97492.22
2019-05-30T18:08:39.351Z,97493.48
2019-05-30T18:11:11.008Z,97497.78
2019-05-30T18:13:42.553Z,97503.30
2019-05-30T18:16:14.203Z,97503.50
2019-05-30T18:18:45.858Z,97510.87
2019-05-30T18:21:21.255Z,97514.77
2019-05-30T18:23:53.822Z,97511.16
2019-05-30T18:26:25.575Z,97513.17
2019-05-30T18:28:57.377Z,97518.52
2019-05-30T18:31:30.143Z,97518.02
2019-05-30T18:34:02.038Z,97517.48
2019-05-30T18:36:34.678Z,97523.98
2019-05-30T18:39:08.138Z,97524.84
2019-05-30T18:41:41.395Z,97531.80
2019-05-30T18:44:13.181Z,97537.78
2019-05-30T18:46:45.388Z,97538.08
2019-05-30T18:49:17.614Z,97544.68
2019-05-30T18:51:49.359Z,97545.37
2019-05-30T18:54:22.218Z,97547.81
2019-05-30T18:56:53.909Z,97552.99
2019-05-30T18:59:25.590Z,97550.02
2019-05-30T19:01:58.588Z,97554.86
2019-05-30T19:04:31.648Z,97548.81
2019-05-30T19:07:03.494Z,97548.48
2019-05-30T19:09:37.504Z,97549.56
2019-05-30T19:12:10.161Z,97549.25
2019-05-30T19:14:41.850Z,97552.58
2019-05-30T19:17:14.917Z,97553.45
2019-05-30T19:19:46.548Z,97553.56
2019-05-30T19:22:18.874Z,97555.51
2019-05-30T19:24:52.330Z,97554.19
2019-05-30T19:27:24.002Z,97549.47
2019-05-30T19:29:55.792Z,97549.55
2019-05-30T19:32:28.578Z,97551.34
2019-05-30T19:35:01.495Z,97554.58
2019-05-30T19:37:35.317Z,97554.44
2019-05-30T19:40:08.960Z,97544.03
2019-05-30T19:42:41.942Z,97550.22
2019-05-30T19:45:15.726Z,97560.28
2019-05-30T19:47:48.196Z,97551.73
2019-05-30T19:50:20.676Z,97558.02
2019-05-30T19:52:53.046Z,97562.61
2019-05-30T19:55:24.681Z,97554.14
2019-05-30T19:57:57.107Z,97565.86
2019-05-30T20:00:29.904Z,97561.72
2019-05-30T20:03:02.150Z,97565.30
2019-05-30T20:05:34.576Z,97562.36
2019-05-30T20:08:07.196Z,97560.36
2019-05-30T20:10:39.216Z,97553.58
2019-05-30T20:13:11.105Z,97553.13
2019-05-30T20:15:42.894Z,97554.02
2019-05-30T20:18:15.754Z,97555.98
2019-05-30T20:20:56.963Z,97556.66
2019-05-30T20:23:21.185Z,97553.69
2019-05-30T20:25:53.087Z,97551.69
2019-05-30T20:28:25.203Z,97552.83
2019-05-30T20:30:58.231Z,97548.04
2019-05-30T20:33:30.065Z,97547.17
2019-05-30T20:36:09.195Z,97547.66
2019-05-30T20:38:40.966Z,97544.20
2019-05-30T20:41:12.640Z,97540.93
2019-05-30T20:43:45.678Z,97536.48
2019-05-30T20:46:23.161Z,97528.88
2019-05-30T20:48:50.931Z,97530.68
2019-05-30T20:51:23.377Z,97532.22
2019-05-30T20:53:58.835Z,97530.23
2019-05-30T20:56:32.486Z,97539.12
2019-05-30T20:59:05.667Z,97531.73
2019-05-30T21:01:38.075Z,97537.05
2019-05-30T21:04:10.261Z,97531.28
2019-05-30T21:07:03.422Z,97532.14
2019-05-30T21:09:35.998Z,97525.38
2019-05-30T21:12:07.701Z,97525.22
2019-05-30T21:14:41.475Z,97530.23
2019-05-30T21:17:15.923Z,97527.59
2019-05-30T21:19:49.363Z,97529.92
2019-05-30T21:22:21.116Z,97531.54
2019-05-30T21:24:52.927Z,97536.29
2019-05-30T21:27:24.757Z,97542.91
2019-05-30T21:29:57.212Z,97538.34
2019-05-30T21:32:30.446Z,97551.67
2019-05-30T21:35:03.275Z,97546.22
2019-05-30T21:37:35.073Z,97546.70
2019-05-30T21:40:07.907Z,97547.91
2019-05-30T21:42:55.403Z,97539.38
2019-05-30T21:45:13.443Z,97538.16
2019-05-30T21:47:46.835Z,97543.45
2019-05-30T21:50:20.367Z,97538.03
2019-05-30T21:52:52.086Z,97534.20
2019-05-30T21:55:23.789Z,97528.66
2019-05-30T21:57:57.083Z,97533.92
2019-05-30T22:01:17.394Z,97529.94
2019-05-30T22:03:49.128Z,97532.27
2019-05-30T22:06:21.721Z,97533.80
2019-05-30T22:08:54.756Z,97536.58
2019-05-30T22:11:26.579Z,97536.89
2019-05-30T22:13:58.480Z,97539.03
2019-05-30T22:16:30.138Z,97535.57
2019-05-30T22:19:02.076Z,97528.86
2019-05-30T22:21:33.920Z,97526.36
2019-05-30T22:24:05.758Z,97518.15
2019-05-30T22:26:37.476Z,97507.45
2019-05-30T22:29:09.288Z,97504.64
2019-05-30T22:31:42.447Z,97495.58
2019-05-30T22:34:14.685Z,97489.00
2019-05-30T22:36:46.798Z,97496.08
2019-05-30T22:39:19.029Z,97495.77
2019-05-30T22:41:52.063Z,97499.90
2019-05-30T22:44:24.043Z,97499.35
2019-05-30T22:46:56.910Z,97498.40
2019-05-30T22:49:29.069Z,97498.40
2019-05-30T22:52:00.769Z,97490.83
2019-05-30T22:54:32.578Z,97492.16
2019-05-30T22:57:04.233Z,97501.23
2019-05-30T22:59:35.987Z,97504.05
2019-05-30T23:02:07.647Z,97511.00
2019-05-30T23:04:39.474Z,97519.72
2019-05-30T23:07:11.146Z,97520.89
2019-05-30T23:09:43.186Z,97516.20
2019-05-30T23:12:16.774Z,97521.97
2019-05-30T23:14:48.564Z,97525.33
2019-05-30T23:17:20.672Z,97515.48
2019-05-30T23:19:53.246Z,97517.47
2019-05-30T23:22:25.380Z,97517.16
2019-05-30T23:24:57.499Z,97514.84
2019-05-30T23:27:30.489Z,97519.78
2019-05-30T23:32:32.322Z,97522.09
2019-05-30T23:35:04.117Z,97523.07
2019-05-30T23:37:35.644Z,97525.70
2019-05-30T23:40:08.724Z,97526.86
2019-05-30T23:42:40.566Z,97518.48
2019-05-30T23:45:13.556Z,97523.88
2019-05-30T23:47:45.375Z,97523.73
2019-05-30T23:50:17.929Z,97524.86
2019-05-30T23:52:50.071Z,97533.42
2019-05-30T23:55:22.093Z,97527.01
2019-05-30T23:57:54.590Z,97523.58
